Time;durP1;ratioP1;P1;durP2;ratioP2;P2;SDS_P1;SDS_P2;PMS_P1;PMS_P2;Temp;Humidity;BMP_temperature;BMP_pressure;BME280_temperature;BME280_humidity;BME280_pressure;Samples;Min_cycle;Max_cycle;Signal;HPM_P1;HPM_P2
2022/04/17 00:05:51;;;;;;;0.57;0.20;;;4.50;75.50;;;;;;19865939;29;20403;-56
2022/04/17 00:15:54;;;;;;;0.57;0.20;;;4.20;76.60;;;;;;19858506;29;20136;-57
2022/04/17 00:25:57;;;;;;;0.40;0.20;;;3.70;78.70;;;;;;19804316;29;20043;-56
2022/04/17 00:36:00;;;;;;;0.40;0.20;;;3.70;76.30;;;;;;19842199;29;20095;-49
2022/04/17 00:46:02;;;;;;;0.60;0.20;;;3.70;75.30;;;;;;19858583;29;20095;-56
2022/04/17 00:56:06;;;;;;;0.43;0.20;;;4.20;73.30;;;;;;19828605;29;20059;-56
2022/04/17 01:06:10;;;;;;;0.50;0.20;;;4.50;72.20;;;;;;19848308;29;20055;-54
2022/04/17 01:16:16;;;;;;;0.75;0.22;;;4.50;72.30;;;;;;19824532;29;20458;-56
2022/04/17 01:36:40;;;;;;;0.52;0.30;;;4.20;72.20;;;;;;19817554;29;20076;-50
2022/04/17 01:46:44;;;;;;;0.93;0.30;;;4.50;70.60;;;;;;19833967;29;20080;-48
2022/04/17 01:56:50;;;;;;;1.85;0.30;;;4.20;71.90;;;;;;19829122;29;20584;-55
2022/04/17 02:06:53;;;;;;;0.20;0.10;;;3.80;71.50;;;;;;19802366;29;20055;-50
2022/04/17 02:16:57;;;;;;;0.40;0.17;;;3.50;70.30;;;;;;19845078;29;20569;-49
2022/04/17 02:27:00;;;;;;;0.70;0.25;;;3.50;70.10;;;;;;19831846;29;20497;-51
2022/04/17 02:37:02;;;;;;;0.85;0.20;;;3.30;71.20;;;;;;19811878;29;20149;-48
2022/04/17 02:57:25;;;;;;;0.77;0.40;;;2.60;72.50;;;;;;19847751;29;20567;-46
2022/04/17 03:07:29;;;;;;;1.63;0.32;;;2.70;70.90;;;;;;19852620;29;20127;-52
2022/04/17 03:17:31;;;;;;;0.75;0.20;;;2.90;71.00;;;;;;19867515;29;20123;-51
2022/04/17 03:27:34;;;;;;;0.38;0.10;;;2.00;73.30;;;;;;19849507;29;20035;-49
2022/04/17 03:37:36;;;;;;;0.22;0.10;;;2.90;70.50;;;;;;19848022;29;20051;-48
2022/04/17 03:47:39;;;;;;;0.85;0.35;;;3.40;68.40;;;;;;19834637;29;20082;-49
2022/04/17 03:57:42;;;;;;;0.55;0.25;;;3.50;69.10;;;;;;19806754;29;20127;-47
2022/04/17 04:07:45;;;;;;;0.68;0.20;;;3.50;67.70;;;;;;19805616;29;20144;-49
2022/04/17 04:17:48;;;;;;;0.77;0.20;;;3.30;69.60;;;;;;19849785;29;20679;-51
2022/04/17 04:38:11;;;;;;;1.05;0.30;;;3.30;68.60;;;;;;19805835;29;20121;-48
2022/04/17 04:48:14;;;;;;;1.33;0.32;;;3.00;69.00;;;;;;19858347;29;20096;-49
2022/04/17 04:58:17;;;;;;;0.98;0.30;;;2.80;69.70;;;;;;19834112;29;20055;-50
2022/04/17 05:08:20;;;;;;;0.40;0.13;;;2.70;69.40;;;;;;19875740;29;20092;-50
2022/04/17 05:18:23;;;;;;;0.30;0.10;;;2.90;68.40;;;;;;19874904;29;20080;-51
2022/04/17 05:28:28;;;;;;;0.60;0.20;;;3.00;67.70;;;;;;19863145;29;20567;-54
2022/04/17 05:38:30;;;;;;;0.38;0.20;;;2.90;66.90;;;;;;19827014;29;20135;-48
2022/04/17 05:48:34;;;;;;;0.50;0.20;;;3.30;65.70;;;;;;19805315;29;20112;-48
2022/04/17 05:58:36;;;;;;;0.73;0.22;;;3.50;65.30;;;;;;19798488;29;20133;-48
2022/04/17 06:08:39;;;;;;;0.25;0.20;;;3.70;64.00;;;;;;19797942;29;20075;-51
2022/04/17 06:18:42;;;;;;;0.85;0.20;;;4.00;62.40;;;;;;19843257;29;20047;-51
2022/04/17 06:28:44;;;;;;;0.43;0.28;;;4.30;63.70;;;;;;19812884;29;20092;-53
2022/04/17 06:38:47;;;;;;;0.47;0.30;;;4.80;65.70;;;;;;19838548;29;20082;-51
2022/04/17 06:48:49;;;;;;;0.35;0.22;;;6.60;69.30;;;;;;19796635;29;20039;-54
2022/04/17 06:58:52;;;;;;;1.98;0.80;;;7.70;71.40;;;;;;19840638;29;20054;-55
2022/04/17 07:08:55;;;;;;;0.80;0.60;;;8.80;89.10;;;;;;19854170;29;20058;-56
2022/04/17 07:18:58;;;;;;;3.72;0.60;;;9.70;90.80;;;;;;19868567;29;20575;-56
2022/04/17 07:29:02;;;;;;;1.95;0.60;;;10.30;86.40;;;;;;19882914;29;20075;-55
2022/04/17 07:39:05;;;;;;;1.98;0.80;;;10.50;86.80;;;;;;19822189;29;20096;-55
2022/04/17 07:49:08;;;;;;;2.08;0.95;;;10.60;92.80;;;;;;19807226;29;20074;-52
2022/04/17 07:59:12;;;;;;;2.72;1.27;;;10.60;93.60;;;;;;19860626;29;20419;-55
2022/04/17 08:09:15;;;;;;;5.28;1.42;;;10.40;95.00;;;;;;19879351;29;20128;-56
2022/04/17 08:19:17;;;;;;;5.43;1.25;;;10.50;94.50;;;;;;19856751;29;20042;-55
2022/04/17 08:29:20;;;;;;;5.35;1.77;;;10.90;94.40;;;;;;19814938;29;20120;-56
2022/04/17 08:39:22;;;;;;;3.72;1.55;;;10.70;94.00;;;;;;19809882;29;20047;-55
2022/04/17 08:49:27;;;;;;;3.85;1.30;;;10.80;95.10;;;;;;19802470;29;20066;-56
2022/04/17 08:59:32;;;;;;;3.60;1.33;;;11.10;97.40;;;;;;19802177;29;20059;-56
2022/04/17 09:09:50;;;;;;;2.58;1.83;;;11.70;95.90;;;;;;19801569;29;20047;-57
2022/04/17 09:19:53;;;;;;;3.42;1.67;;;12.10;94.70;;;;;;19842311;29;20518;-55
2022/04/17 09:29:55;;;;;;;11.07;1.80;;;12.30;93.40;;;;;;19810924;29;20062;-56
2022/04/17 09:40:07;;;;;;;3.17;1.75;;;11.90;94.00;;;;;;19814443;29;20100;-57
2022/04/17 09:50:10;;;;;;;6.65;2.58;;;12.10;95.20;;;;;;19831013;29;20509;-55
2022/04/17 10:00:18;;;;;;;2.45;1.80;;;12.10;92.40;;;;;;19861940;29;20051;-55
2022/04/17 10:10:22;;;;;;;3.07;1.90;;;12.50;95.10;;;;;;19828551;29;20496;-57
2022/04/17 10:20:26;;;;;;;4.88;1.90;;;12.70;95.80;;;;;;19797568;29;20503;-57
2022/04/17 10:30:59;;;;;;;4.18;1.90;;;12.90;93.30;;;;;;19798380;29;20047;-54
2022/04/17 10:41:12;;;;;;;3.25;2.05;;;12.40;93.60;;;;;;19850572;29;20099;-57
2022/04/17 10:51:32;;;;;;;4.43;2.47;;;12.30;92.60;;;;;;19840784;29;20103;-56
2022/04/17 11:01:44;;;;;;;3.37;2.40;;;12.70;94.60;;;;;;19822427;29;20059;-56
2022/04/17 11:11:48;;;;;;;5.53;2.72;;;12.70;93.80;;;;;;19819498;29;20219;-57
2022/04/17 11:21:54;;;;;;;11.27;3.08;;;12.50;93.70;;;;;;19849361;29;20047;-57
2022/04/17 11:31:57;;;;;;;4.15;2.47;;;12.60;92.00;;;;;;19807779;29;20449;-57
2022/04/17 11:42:00;;;;;;;4.57;2.20;;;12.90;92.10;;;;;;19852854;29;20031;-57
2022/04/17 11:52:20;;;;;;;4.75;2.67;;;13.00;92.30;;;;;;19833154;29;20146;-56
2022/04/17 12:02:25;;;;;;;3.13;2.40;;;12.90;90.90;;;;;;19806006;29;20117;-57
2022/04/17 12:12:45;;;;;;;3.88;2.20;;;13.10;91.30;;;;;;19873976;29;20580;-57
2022/04/17 12:22:48;;;;;;;4.72;2.40;;;12.80;91.70;;;;;;19824265;29;20502;-57
2022/04/17 12:32:55;;;;;;;5.45;2.60;;;12.90;90.20;;;;;;19808540;29;20095;-57
2022/04/17 12:43:15;;;;;;;3.50;2.50;;;13.40;88.90;;;;;;19877958;29;20127;-57
2022/04/17 12:53:17;;;;;;;4.43;2.70;;;13.20;90.20;;;;;;19863824;29;20051;-57
2022/04/17 13:03:20;;;;;;;6.05;2.90;;;13.40;89.60;;;;;;19820383;29;20059;-57
2022/04/17 13:13:36;;;;;;;3.92;2.85;;;13.40;83.20;;;;;;19831829;29;20426;-57
2022/04/17 13:23:39;;;;;;;6.30;2.55;;;12.90;87.40;;;;;;19823702;29;20075;-55
2022/04/17 13:33:42;;;;;;;5.20;2.97;;;13.30;89.70;;;;;;19837181;29;20128;-57
2022/04/17 13:43:45;;;;;;;6.88;2.60;;;13.40;89.10;;;;;;19891886;29;20082;-58
2022/04/17 13:53:48;;;;;;;6.07;2.58;;;13.30;89.60;;;;;;19931718;29;20082;-58
2022/04/17 14:03:52;;;;;;;4.60;2.35;;;13.70;81.40;;;;;;19924300;29;20085;-58
2022/04/17 14:13:57;;;;;;;2.80;2.03;;;13.30;84.30;;;;;;19859792;29;20086;-58
2022/04/17 14:24:00;;;;;;;3.58;2.58;;;12.80;84.60;;;;;;19849718;29;20097;-58
2022/04/17 14:34:03;;;;;;;3.10;2.40;;;13.10;84.80;;;;;;19818676;29;20135;-58
2022/04/17 14:44:06;;;;;;;5.15;2.67;;;13.20;87.80;;;;;;19854814;29;20047;-58
2022/04/17 14:54:13;;;;;;;3.30;2.45;;;13.20;83.80;;;;;;19798601;29;20264;-58
2022/04/17 15:04:18;;;;;;;4.18;2.75;;;13.10;83.70;;;;;;19832866;29;20119;-58
2022/04/17 15:14:21;;;;;;;4.90;2.85;;;12.70;83.50;;;;;;19841492;29;20131;-58
2022/04/17 15:24:25;;;;;;;10.52;3.15;;;11.80;83.60;;;;;;19845895;29;20072;-58
2022/04/17 15:34:28;;;;;;;4.90;2.53;;;11.00;86.00;;;;;;19800239;29;20100;-58
2022/04/17 15:54:55;;;;;;;6.70;2.95;;;10.00;87.30;;;;;;19745818;29;20070;-52
2022/04/17 16:05:00;;;;;;;6.18;2.67;;;9.60;90.00;;;;;;19765315;29;20150;-57
2022/04/17 16:15:07;;;;;;;4.25;2.33;;;10.20;86.70;;;;;;19772824;29;20458;-52
2022/04/17 16:25:11;;;;;;;3.88;2.50;;;9.10;90.30;;;;;;19770157;29;20083;-52
2022/04/17 16:35:15;;;;;;;5.47;3.20;;;8.00;91.70;;;;;;19789476;29;20412;-52
2022/04/17 16:45:18;;;;;;;6.50;3.15;;;7.50;93.20;;;;;;19792449;29;20069;-50
2022/04/17 16:55:21;;;;;;;7.25;3.28;;;7.30;92.60;;;;;;19796668;29;20071;-61
2022/04/17 17:05:24;;;;;;;6.03;3.15;;;7.40;94.00;;;;;;19794529;29;20071;-63
2022/04/17 17:15:27;;;;;;;9.38;3.70;;;7.30;93.00;;;;;;19817627;29;20035;-64
2022/04/17 17:25:31;;;;;;;7.50;2.78;;;7.10;94.00;;;;;;19851869;29;20043;-64
2022/04/17 17:35:34;;;;;;;8.65;3.97;;;6.70;95.30;;;;;;19809895;29;20196;-65
2022/04/17 17:45:37;;;;;;;7.47;4.00;;;6.20;95.10;;;;;;19799246;29;20083;-66
2022/04/17 17:55:40;;;;;;;11.70;4.10;;;5.50;96.80;;;;;;19811808;29;20047;-66
2022/04/17 18:05:43;;;;;;;8.68;4.78;;;5.00;98.00;;;;;;19802068;29;20034;-65
2022/04/17 18:15:49;;;;;;;11.20;5.30;;;4.30;98.70;;;;;;19834348;29;20039;-65
2022/04/17 18:25:53;;;;;;;8.15;4.40;;;3.70;99.50;;;;;;19820740;29;20099;-65
2022/04/17 18:35:57;;;;;;;15.20;6.32;;;3.10;99.90;;;;;;19832702;29;20051;-54
2022/04/17 18:46:00;;;;;;;11.93;4.70;;;2.70;99.90;;;;;;19798732;29;20134;-53
2022/04/17 18:56:03;;;;;;;10.52;3.85;;;2.50;99.90;;;;;;19807849;29;20116;-50
2022/04/17 19:06:07;;;;;;;10.18;4.13;;;2.40;99.90;;;;;;19824458;29;20092;-49
2022/04/17 19:16:10;;;;;;;8.43;4.47;;;2.20;99.90;;;;;;19822622;29;20070;-53
2022/04/17 19:26:21;;;;;;;18.40;5.25;;;1.80;99.90;;;;;;19807980;29;21178;-53
2022/04/17 19:36:24;;;;;;;11.10;4.53;;;1.70;99.90;;;;;;19808129;29;20078;-53
2022/04/17 19:46:27;;;;;;;12.32;4.80;;;1.70;99.90;;;;;;19807130;29;20096;-52
2022/04/17 19:56:31;;;;;;;7.90;4.80;;;1.70;99.90;;;;;;19863977;29;20054;-52
2022/04/17 20:06:35;;;;;;;13.30;4.40;;;1.50;99.90;;;;;;19871289;29;20468;-50
2022/04/17 20:16:38;;;;;;;8.68;4.78;;;1.30;99.90;;;;;;19879649;29;20092;-51
2022/04/17 20:26:43;;;;;;;10.10;4.18;;;1.10;99.90;;;;;;19833319;29;20076;-52
2022/04/17 20:36:46;;;;;;;10.07;4.72;;;0.90;99.90;;;;;;19816627;29;20043;-53
2022/04/17 20:57:14;;;;;;;9.40;4.45;;;1.00;99.90;;;;;;19874426;29;20081;-53
2022/04/17 21:07:17;;;;;;;12.85;4.65;;;1.10;99.90;;;;;;19926980;29;20138;-53
2022/04/17 21:17:21;;;;;;;8.93;4.22;;;1.10;99.90;;;;;;19852212;29;20082;-53
2022/04/17 21:27:26;;;;;;;6.55;4.10;;;1.10;99.90;;;;;;19831410;29;20078;-54
2022/04/17 21:37:30;;;;;;;9.90;4.50;;;1.10;99.90;;;;;;19829704;29;20039;-52
2022/04/17 21:47:33;;;;;;;14.55;3.97;;;1.10;99.90;;;;;;19873414;29;20074;-51
2022/04/17 21:57:36;;;;;;;8.23;4.30;;;1.10;99.90;;;;;;19803189;29;20989;-50
2022/04/17 22:07:39;;;;;;;6.72;4.20;;;0.80;99.90;;;;;;19844789;29;20070;-52
2022/04/17 22:17:42;;;;;;;7.82;4.22;;;0.70;99.90;;;;;;19871915;29;20043;-52
2022/04/17 22:27:46;;;;;;;10.93;4.38;;;0.50;99.90;;;;;;19868073;29;20074;-53
2022/04/17 22:37:48;;;;;;;10.25;4.95;;;0.10;99.90;;;;;;19835225;29;20043;-50
2022/04/17 22:47:51;;;;;;;14.55;4.65;;;-0.10;99.90;;;;;;19811189;29;20071;-51
2022/04/17 22:57:54;;;;;;;8.85;4.45;;;-0.20;99.90;;;;;;19810406;29;20469;-51
2022/04/17 23:07:56;;;;;;;9.10;4.38;;;-0.30;99.90;;;;;;19859833;29;20482;-51
2022/04/17 23:17:59;;;;;;;8.95;4.13;;;-0.40;99.90;;;;;;19850344;29;20093;-52
2022/04/17 23:28:03;;;;;;;7.78;3.90;;;-0.40;99.90;;;;;;19810464;29;20468;-51
2022/04/17 23:38:05;;;;;;;8.23;3.95;;;-0.40;99.90;;;;;;19867336;29;20047;-52
2022/04/17 23:48:08;;;;;;;11.07;4.22;;;-0.40;99.90;;;;;;19846414;29;20137;-51
2022/04/17 23:58:10;;;;;;;5.97;3.60;;;-0.20;99.90;;;;;;19806112;29;20071;-53
